Time;durP1;ratioP1;P1;durP2;ratioP2;P2;SDS_P1;SDS_P2;PMS_P1;PMS_P2;Temp;Humidity;BMP_temperature;BMP_pressure;BME280_temperature;BME280_humidity;BME280_pressure;Samples;Min_cycle;Max_cycle;Signal;HPM_P1;HPM_P2
2021/12/07 00:01:36;;;;;;;6.68;2.60;;;22.70;99.90;;;;;;5007787;28;20387;-89
2021/12/07 00:04:04;;;;;;;4.82;2.50;;;22.90;99.90;;;;;;5007859;28;20381;-89
2021/12/07 00:06:31;;;;;;;5.75;2.50;;;23.00;99.90;;;;;;4990368;28;20763;-90
2021/12/07 00:08:58;;;;;;;5.20;2.35;;;23.10;99.90;;;;;;5007692;28;20408;-90
2021/12/07 00:11:28;;;;;;;5.32;2.60;;;23.10;99.90;;;;;;5008015;28;20383;-88
2021/12/07 00:13:58;;;;;;;6.07;2.50;;;23.20;99.90;;;;;;5008000;28;20375;-89
2021/12/07 00:16:27;;;;;;;6.32;2.80;;;23.50;99.90;;;;;;5007996;28;20371;-88
2021/12/07 00:18:54;;;;;;;6.30;2.75;;;23.60;99.90;;;;;;5009434;28;20394;-88
2021/12/07 00:21:22;;;;;;;7.18;2.70;;;23.50;99.90;;;;;;5008404;28;20379;-89
2021/12/07 00:23:50;;;;;;;5.13;2.50;;;23.50;99.90;;;;;;5009874;28;20388;-87
2021/12/07 00:26:17;;;;;;;6.95;2.83;;;23.70;99.90;;;;;;5007663;28;20375;-88
2021/12/07 00:28:44;;;;;;;4.97;2.70;;;23.70;99.90;;;;;;5007541;28;20850;-89
2021/12/07 00:34:42;;;;;;;4.97;2.47;;;24.30;99.90;;;;;;5007831;28;20362;-88
2021/12/07 00:36:52;;;;;;;4.57;2.42;;;24.60;99.90;;;;;;5005139;28;20388;-88
2021/12/07 00:39:22;;;;;;;7.10;2.70;;;24.60;99.90;;;;;;4989762;28;20810;-88
2021/12/07 00:41:51;;;;;;;5.65;2.78;;;24.20;99.90;;;;;;5007682;28;20494;-88
2021/12/07 00:44:19;;;;;;;4.43;2.40;;;24.60;99.90;;;;;;5007227;28;20379;-89
2021/12/07 00:46:47;;;;;;;4.53;2.40;;;25.20;99.90;;;;;;5007154;28;20385;-88
2021/12/07 00:49:14;;;;;;;6.40;2.42;;;25.70;99.90;;;;;;5006858;28;21238;-89
2021/12/07 00:51:42;;;;;;;4.00;2.30;;;25.80;99.70;;;;;;5008325;28;20464;-87
2021/12/07 00:54:09;;;;;;;4.53;2.27;;;25.90;99.70;;;;;;5007129;28;20379;-90
2021/12/07 00:56:37;;;;;;;4.65;2.28;;;26.00;99.10;;;;;;5007241;28;20389;-88
2021/12/07 00:59:05;;;;;;;4.25;2.17;;;26.50;97.50;;;;;;5007270;28;20465;-87
2021/12/07 01:01:33;;;;;;;4.03;2.10;;;26.80;96.80;;;;;;5007552;28;20387;-87
2021/12/07 01:04:00;;;;;;;2.85;2.20;;;27.10;97.30;;;;;;5006964;28;20527;-87
2021/12/07 01:06:32;;;;;;;4.03;2.30;;;27.40;95.10;;;;;;5007120;28;20391;-88
2021/12/07 01:09:11;;;;;;;5.32;2.17;;;27.50;93.70;;;;;;5006842;28;20405;-88
2021/12/07 01:25:36;;;;;;;3.05;1.90;;;29.30;86.40;;;;;;5011431;28;20410;-85
2021/12/07 01:28:13;;;;;;;3.03;1.80;;;29.20;86.00;;;;;;5011388;28;20946;-88
2021/12/07 01:31:13;;;;;;;4.80;2.00;;;28.70;86.50;;;;;;5010798;28;20410;-88
2021/12/07 02:00:16;;;;;;;3.03;1.80;;;30.60;80.80;;;;;;5010128;28;20414;-88
2021/12/07 02:02:43;;;;;;;4.67;1.83;;;31.00;75.90;;;;;;5010141;28;20380;-88
2021/12/07 02:05:12;;;;;;;3.15;1.70;;;31.20;72.50;;;;;;5009949;28;20391;-87
2021/12/07 02:07:39;;;;;;;4.57;1.80;;;31.30;73.20;;;;;;5010253;28;20407;-87
2021/12/07 02:10:12;;;;;;;2.30;1.70;;;31.60;71.50;;;;;;5009688;28;20418;-86
2021/12/07 02:12:45;;;;;;;3.20;1.70;;;31.70;71.90;;;;;;5009905;28;20375;-87
2021/12/07 02:15:18;;;;;;;2.60;1.80;;;32.50;68.20;;;;;;5008564;28;20395;-87
2021/12/07 02:17:47;;;;;;;3.17;1.90;;;32.40;67.10;;;;;;5009939;28;20898;-87
2021/12/07 02:20:15;;;;;;;4.20;1.80;;;32.10;66.30;;;;;;5008398;28;20762;-87
2021/12/07 02:22:42;;;;;;;4.07;1.60;;;32.30;66.60;;;;;;5009859;28;20368;-86
2021/12/07 02:25:12;;;;;;;2.63;1.73;;;32.60;65.40;;;;;;5009593;28;20482;-87
2021/12/07 02:27:39;;;;;;;2.88;1.70;;;33.30;64.00;;;;;;5009850;28;20384;-88
2021/12/07 02:30:10;;;;;;;3.28;1.50;;;33.90;60.50;;;;;;5009386;28;20414;-88
2021/12/07 02:32:38;;;;;;;3.72;1.65;;;33.90;61.20;;;;;;5009691;28;20430;-88
2021/12/07 02:35:07;;;;;;;3.22;1.52;;;34.70;59.10;;;;;;5008241;28;20387;-88
2021/12/07 02:37:35;;;;;;;2.88;1.55;;;34.70;56.90;;;;;;5009354;28;20386;-88
2021/12/07 02:40:06;;;;;;;2.83;1.47;;;34.90;56.60;;;;;;5009292;28;20386;-88
2021/12/07 02:42:33;;;;;;;4.20;1.50;;;35.20;55.60;;;;;;5009295;28;20871;-85
2021/12/07 02:45:01;;;;;;;4.38;1.60;;;35.20;54.10;;;;;;5014001;28;20774;-86
2021/12/07 02:47:28;;;;;;;2.75;1.50;;;35.50;54.10;;;;;;5009012;28;20382;-88
2021/12/07 02:49:55;;;;;;;4.13;1.50;;;34.80;55.50;;;;;;5009113;28;20985;-87
2021/12/07 02:52:22;;;;;;;5.03;1.60;;;34.70;52.70;;;;;;5009008;28;20502;-87
2021/12/07 02:54:50;;;;;;;3.20;1.70;;;33.90;55.40;;;;;;5009171;28;20383;-88
2021/12/07 02:57:19;;;;;;;3.22;1.70;;;33.50;54.60;;;;;;5010111;28;20429;-87
2021/12/07 02:59:57;;;;;;;2.83;1.63;;;33.20;57.30;;;;;;5009081;28;20387;-88
2021/12/07 03:02:25;;;;;;;3.28;1.50;;;34.40;57.60;;;;;;5008763;28;20447;-88
2021/12/07 03:05:08;;;;;;;2.13;1.40;;;35.20;55.40;;;;;;5008765;28;20379;-88
2021/12/07 03:27:05;;;;;;;2.03;1.40;;;37.40;50.20;;;;;;5008379;28;20509;-88
2021/12/07 03:29:31;;;;;;;1.57;1.30;;;37.40;48.10;;;;;;5008053;28;20439;-87
2021/12/07 03:31:58;;;;;;;1.52;1.27;;;36.70;49.40;;;;;;5008196;28;20855;-86
2021/12/07 03:34:25;;;;;;;5.13;1.30;;;36.40;50.10;;;;;;5008280;28;20394;-85
2021/12/07 03:36:52;;;;;;;3.50;1.30;;;37.10;51.30;;;;;;5007714;28;20389;-88
2021/12/07 03:39:19;;;;;;;3.20;1.30;;;37.90;49.00;;;;;;5010380;28;20418;-88
2021/12/07 03:41:47;;;;;;;3.38;1.50;;;37.30;48.10;;;;;;5008435;28;20415;-87
2021/12/07 03:44:14;;;;;;;1.40;1.30;;;35.50;49.40;;;;;;5008149;28;20429;-86
2021/12/07 03:46:41;;;;;;;2.78;1.50;;;33.70;52.70;;;;;;5008077;28;20385;-87
2021/12/07 03:49:08;;;;;;;1.80;1.38;;;32.20;55.10;;;;;;5007691;28;20895;-87
2021/12/07 03:51:35;;;;;;;3.20;1.40;;;30.80;58.50;;;;;;5007978;28;20402;-88
2021/12/07 03:54:02;;;;;;;2.72;1.50;;;30.10;60.50;;;;;;5008679;28;20375;-86
2021/12/07 03:56:29;;;;;;;3.22;1.50;;;29.70;61.30;;;;;;4990216;28;20763;-86
2021/12/07 03:58:56;;;;;;;3.67;1.55;;;29.30;63.30;;;;;;5008041;28;20375;-87
2021/12/07 04:01:23;;;;;;;2.83;1.60;;;29.00;66.50;;;;;;5008081;28;20402;-86
2021/12/07 04:03:52;;;;;;;5.85;1.70;;;28.50;73.70;;;;;;5007892;28;20897;-88
2021/12/07 04:06:21;;;;;;;3.67;1.80;;;29.30;82.00;;;;;;5007640;28;20415;-86
2021/12/07 04:08:49;;;;;;;8.10;2.85;;;27.00;89.60;;;;;;4989852;28;20383;-85
2021/12/07 04:11:16;;;;;;;11.60;3.50;;;26.00;95.50;;;;;;5007818;28;20743;-87
2021/12/07 04:13:45;;;;;;;19.48;4.43;;;25.30;99.90;;;;;;5008033;28;20379;-85
2021/12/07 04:16:15;;;;;;;10.48;3.70;;;23.60;99.90;;;;;;5007706;28;20391;-87
2021/12/07 04:18:42;;;;;;;10.88;4.25;;;22.50;99.90;;;;;;5007642;28;20379;-86
2021/12/07 04:21:09;;;;;;;8.02;4.25;;;21.80;99.90;;;;;;5007738;28;20391;-88
2021/12/07 04:23:38;;;;;;;10.25;5.05;;;21.30;99.90;;;;;;5007818;28;20443;-89
2021/12/07 04:26:07;;;;;;;13.02;6.40;;;21.00;99.90;;;;;;5009482;28;20395;-87
2021/12/07 04:28:35;;;;;;;9.50;5.93;;;20.90;99.90;;;;;;5007537;28;20392;-89
2021/12/07 04:31:02;;;;;;;11.52;6.85;;;20.80;99.90;;;;;;5007485;28;20410;-87
2021/12/07 04:33:29;;;;;;;10.18;6.07;;;20.70;99.90;;;;;;5007352;28;20376;-87
2021/12/07 04:35:57;;;;;;;5.47;4.10;;;20.50;99.90;;;;;;5007372;28;20392;-90
2021/12/07 04:38:24;;;;;;;8.20;4.45;;;20.40;99.90;;;;;;5007316;28;20739;-88
2021/12/07 04:40:52;;;;;;;7.60;5.90;;;20.50;99.90;;;;;;5007502;28;20386;-89
2021/12/07 04:43:19;;;;;;;7.63;5.80;;;20.60;99.90;;;;;;5008102;28;20383;-89
2021/12/07 04:59:11;;;;;;;3.65;2.20;;;25.10;99.90;;;;;;5022620;28;20392;-80
2021/12/07 05:01:38;;;;;;;4.43;2.10;;;25.30;99.90;;;;;;5006775;28;20375;-79
2021/12/07 05:04:12;;;;;;;3.22;2.05;;;25.30;99.90;;;;;;5006561;28;20379;-79
2021/12/07 05:06:46;;;;;;;2.13;1.50;;;26.00;99.90;;;;;;5003857;28;20395;-78
2021/12/07 05:14:32;;;;;;;1.88;0.80;;;29.70;99.90;;;;;;5006854;28;20708;-80
2021/12/07 05:38:32;;;;;;;5.55;1.83;;;25.00;99.90;;;;;;5007553;28;20437;-79
2021/12/07 05:41:00;;;;;;;6.20;2.00;;;24.50;99.90;;;;;;4987270;28;20409;-79
2021/12/07 05:43:27;;;;;;;2.92;1.80;;;24.30;99.90;;;;;;5001195;28;20399;-81
2021/12/07 05:45:54;;;;;;;3.43;1.40;;;24.30;99.90;;;;;;5006862;28;20407;-76
2021/12/07 05:48:21;;;;;;;2.50;1.48;;;24.30;99.90;;;;;;5006660;28;20417;-80
2021/12/07 05:50:48;;;;;;;4.82;1.60;;;24.20;99.90;;;;;;5008432;28;20469;-78
2021/12/07 05:53:15;;;;;;;3.83;1.50;;;24.20;99.90;;;;;;5011700;28;20385;-76
2021/12/07 05:55:42;;;;;;;3.08;1.60;;;24.20;99.90;;;;;;5029510;28;20374;-78
2021/12/07 05:58:11;;;;;;;2.30;1.50;;;24.10;99.90;;;;;;5015391;28;20391;-79
2021/12/07 06:00:43;;;;;;;3.67;1.77;;;24.00;99.90;;;;;;5009945;28;20371;-80
2021/12/07 06:03:12;;;;;;;4.47;2.00;;;24.00;99.90;;;;;;5011805;28;20741;-81
2021/12/07 06:05:40;;;;;;;4.70;2.67;;;23.90;99.90;;;;;;5010960;28;20474;-80
2021/12/07 06:08:08;;;;;;;5.50;2.70;;;23.80;99.90;;;;;;5010542;28;20376;-79
2021/12/07 06:10:36;;;;;;;4.63;2.30;;;23.70;99.90;;;;;;5011504;28;20420;-84
2021/12/07 06:13:04;;;;;;;4.82;2.30;;;23.70;99.90;;;;;;5018451;28;20386;-81
2021/12/07 06:15:34;;;;;;;4.55;2.30;;;23.60;99.90;;;;;;5027849;28;20443;-82
2021/12/07 06:18:01;;;;;;;6.70;2.60;;;23.50;99.90;;;;;;5010536;28;20494;-84
2021/12/07 06:20:28;;;;;;;3.72;2.50;;;23.40;99.90;;;;;;5010432;28;20379;-82
2021/12/07 06:22:55;;;;;;;5.65;2.42;;;23.20;99.90;;;;;;5021930;28;20389;-82
2021/12/07 06:25:22;;;;;;;3.20;2.40;;;23.20;99.90;;;;;;5026810;28;20401;-81
2021/12/07 06:27:49;;;;;;;4.80;2.70;;;23.10;99.90;;;;;;5009831;28;20440;-82
2021/12/07 06:30:16;;;;;;;5.70;2.65;;;23.00;99.90;;;;;;5009096;28;20907;-81
2021/12/07 06:32:44;;;;;;;4.93;2.50;;;23.00;99.90;;;;;;5014591;28;20392;-81
2021/12/07 06:35:11;;;;;;;4.05;2.50;;;23.10;99.90;;;;;;5027870;28;20740;-85
2021/12/07 06:37:38;;;;;;;4.47;2.40;;;23.10;99.90;;;;;;5009014;28;20874;-82
2021/12/07 06:40:10;;;;;;;3.28;2.20;;;23.00;99.90;;;;;;5010442;28;20495;-79
2021/12/07 06:42:38;;;;;;;3.00;1.90;;;23.10;99.90;;;;;;5009404;28;20490;-83
2021/12/07 06:45:08;;;;;;;2.72;2.10;;;23.30;99.90;;;;;;5008997;28;20919;-85
2021/12/07 06:47:35;;;;;;;4.00;2.25;;;23.40;99.90;;;;;;5009466;28;20406;-84
2021/12/07 06:50:07;;;;;;;4.50;2.00;;;23.40;99.90;;;;;;5010144;28;20788;-86
2021/12/07 06:52:35;;;;;;;2.70;2.00;;;23.40;99.90;;;;;;5009841;28;20383;-81
2021/12/07 06:55:02;;;;;;;3.97;2.13;;;23.30;99.90;;;;;;5009796;28;20422;-80
2021/12/07 06:57:29;;;;;;;3.03;2.13;;;23.20;99.90;;;;;;5008841;28;20385;-83
2021/12/07 06:59:56;;;;;;;3.15;2.17;;;23.10;99.90;;;;;;5013518;28;20393;-81
2021/12/07 07:02:23;;;;;;;4.43;2.20;;;23.00;99.90;;;;;;5028544;28;20382;-85
2021/12/07 07:04:50;;;;;;;2.60;1.98;;;22.90;99.90;;;;;;5028400;28;21047;-83
2021/12/07 07:07:22;;;;;;;2.92;2.15;;;22.90;99.90;;;;;;5028873;28;20882;-85
2021/12/07 07:09:49;;;;;;;3.83;2.40;;;22.80;99.90;;;;;;5029315;28;20436;-87
2021/12/07 07:12:16;;;;;;;6.50;2.78;;;22.60;99.90;;;;;;5023437;28;20391;-84
2021/12/07 07:14:43;;;;;;;4.85;2.63;;;22.60;99.90;;;;;;5009081;28;20387;-86
2021/12/07 07:17:10;;;;;;;5.50;2.90;;;22.60;99.90;;;;;;5008570;28;20378;-83
2021/12/07 07:19:37;;;;;;;3.80;2.30;;;22.70;99.90;;;;;;5021849;28;20904;-77
2021/12/07 07:22:04;;;;;;;5.00;2.40;;;22.80;99.90;;;;;;5028187;28;20405;-82
2021/12/07 07:24:33;;;;;;;4.68;2.20;;;22.80;99.90;;;;;;5028190;28;20436;-83
2021/12/07 07:27:00;;;;;;;2.85;2.20;;;22.80;99.90;;;;;;5012779;28;20834;-80
2021/12/07 07:29:28;;;;;;;5.10;2.57;;;22.80;99.90;;;;;;5008736;28;20417;-82
2021/12/07 07:31:56;;;;;;;5.63;2.63;;;22.90;99.90;;;;;;5008245;28;20419;-82
2021/12/07 07:34:23;;;;;;;3.20;2.37;;;22.90;99.90;;;;;;5007933;28;20383;-83
2021/12/07 07:36:50;;;;;;;3.25;2.50;;;22.90;99.90;;;;;;4998837;28;20552;-84
2021/12/07 07:39:17;;;;;;;2.80;2.38;;;23.00;99.90;;;;;;5008938;28;20875;-82
2021/12/07 07:41:44;;;;;;;3.72;2.40;;;23.10;99.90;;;;;;4995942;28;20804;-83
2021/12/07 07:44:11;;;;;;;10.90;2.40;;;23.10;99.90;;;;;;5010323;28;20381;-80
2021/12/07 07:46:38;;;;;;;2.78;2.15;;;23.30;99.90;;;;;;5025393;28;20461;-80
2021/12/07 07:49:05;;;;;;;3.28;1.90;;;23.50;99.90;;;;;;5007409;28;20442;-82
2021/12/07 07:51:33;;;;;;;3.45;2.00;;;23.50;99.90;;;;;;5007899;28;20388;-81
2021/12/07 07:54:01;;;;;;;3.45;1.90;;;23.40;99.90;;;;;;5009027;28;20395;-83
2021/12/07 07:56:29;;;;;;;4.30;2.20;;;23.30;99.90;;;;;;5008732;28;20403;-78
2021/12/07 07:58:58;;;;;;;3.45;2.20;;;23.20;99.90;;;;;;5013420;28;20386;-78
2021/12/07 08:01:30;;;;;;;2.13;1.90;;;23.10;99.90;;;;;;5008086;28;20744;-83
2021/12/07 08:03:58;;;;;;;2.00;1.80;;;22.90;99.90;;;;;;5007484;28;20367;-85
2021/12/07 08:06:25;;;;;;;3.83;2.10;;;22.90;99.90;;;;;;5007722;28;20467;-83
2021/12/07 08:08:53;;;;;;;3.70;1.70;;;22.70;99.90;;;;;;5007215;28;20478;-82
2021/12/07 08:11:20;;;;;;;3.10;1.60;;;22.60;99.90;;;;;;5007568;28;20413;-84
2021/12/07 08:13:47;;;;;;;2.10;1.80;;;22.40;99.90;;;;;;5027280;28;20370;-83
2021/12/07 08:16:17;;;;;;;2.22;1.70;;;22.30;99.90;;;;;;5016114;28;20398;-76
2021/12/07 08:18:46;;;;;;;2.55;1.92;;;22.20;99.90;;;;;;5019476;28;20404;-84
2021/12/07 08:21:14;;;;;;;4.03;2.22;;;22.10;99.90;;;;;;5016756;28;20388;-81
2021/12/07 08:23:42;;;;;;;4.50;2.42;;;22.00;99.90;;;;;;5009367;28;20389;-78
2021/12/07 08:26:12;;;;;;;3.50;2.50;;;21.90;99.90;;;;;;5022361;28;20395;-83
2021/12/07 08:28:39;;;;;;;4.88;2.60;;;21.90;99.90;;;;;;5008290;28;20424;-78
2021/12/07 08:31:07;;;;;;;4.43;2.40;;;21.80;99.90;;;;;;4995739;28;20405;-78
2021/12/07 08:33:34;;;;;;;5.22;2.30;;;21.80;99.90;;;;;;5016993;28;20387;-78
2021/12/07 08:36:03;;;;;;;4.53;2.85;;;21.70;99.90;;;;;;5011346;28;20389;-84
2021/12/07 08:38:32;;;;;;;6.03;2.60;;;21.60;99.90;;;;;;5025735;28;20385;-83
2021/12/07 08:40:59;;;;;;;4.72;2.90;;;21.50;99.90;;;;;;4994379;28;20393;-84
2021/12/07 08:43:31;;;;;;;4.03;2.70;;;21.30;99.90;;;;;;5000078;28;20918;-80
2021/12/07 08:46:00;;;;;;;5.20;2.80;;;21.20;99.90;;;;;;5007365;28;20398;-83
2021/12/07 08:48:28;;;;;;;3.07;2.73;;;21.20;99.90;;;;;;5006884;28;20394;-82
2021/12/07 08:50:59;;;;;;;4.90;2.80;;;21.30;99.90;;;;;;5007277;28;20462;-81
2021/12/07 08:53:26;;;;;;;3.75;2.70;;;21.30;99.90;;;;;;5007244;28;20458;-83
2021/12/07 09:01:27;;;;;;;6.13;2.55;;;21.10;99.90;;;;;;5026570;28;20385;-82
2021/12/07 09:03:57;;;;;;;4.38;2.42;;;21.20;99.90;;;;;;5026695;28;20381;-84
2021/12/07 09:06:25;;;;;;;2.60;2.22;;;21.20;99.90;;;;;;5026928;28;20384;-83
2021/12/07 09:08:52;;;;;;;3.05;2.20;;;21.20;99.90;;;;;;5026920;28;20467;-82
2021/12/07 09:11:20;;;;;;;5.20;2.63;;;21.10;99.90;;;;;;5008411;28;20401;-83
2021/12/07 09:13:47;;;;;;;4.05;3.20;;;21.10;99.90;;;;;;5010642;28;20383;-83
2021/12/07 09:16:17;;;;;;;4.13;3.22;;;21.00;99.90;;;;;;5013961;28;20396;-84
2021/12/07 09:18:45;;;;;;;3.22;2.75;;;21.00;99.90;;;;;;5026864;28;20374;-77
2021/12/07 09:21:13;;;;;;;4.75;2.78;;;21.00;99.90;;;;;;5007658;28;20876;-78
2021/12/07 09:23:40;;;;;;;3.00;2.20;;;21.00;99.90;;;;;;5006924;28;20399;-84
2021/12/07 09:26:09;;;;;;;3.80;2.20;;;21.00;99.90;;;;;;5009932;28;20402;-78
2021/12/07 09:28:38;;;;;;;3.28;2.40;;;20.90;99.90;;;;;;4994417;28;20919;-83
2021/12/07 09:31:07;;;;;;;4.38;2.38;;;20.90;99.90;;;;;;4988749;28;20416;-81
2021/12/07 09:33:34;;;;;;;5.20;2.25;;;20.90;99.90;;;;;;5006144;28;20391;-77
2021/12/07 09:36:04;;;;;;;4.78;2.20;;;20.80;99.90;;;;;;5009193;28;20907;-79
2021/12/07 09:38:31;;;;;;;6.17;2.20;;;20.70;99.90;;;;;;5010280;28;20961;-83
2021/12/07 09:40:58;;;;;;;4.05;2.30;;;20.70;99.90;;;;;;4994113;28;20764;-83
2021/12/07 09:43:25;;;;;;;3.20;2.00;;;20.70;99.90;;;;;;5017934;28;20469;-83
2021/12/07 09:45:53;;;;;;;4.32;2.00;;;20.60;99.90;;;;;;5022841;28;20901;-83
2021/12/07 09:48:20;;;;;;;3.25;2.05;;;20.50;99.90;;;;;;5009761;28;20895;-84
2021/12/07 09:50:54;;;;;;;3.83;2.20;;;20.50;99.90;;;;;;5010050;28;20414;-81
2021/12/07 09:53:22;;;;;;;3.58;2.20;;;20.40;99.90;;;;;;5009810;28;20387;-83
2021/12/07 09:55:50;;;;;;;3.88;2.10;;;20.40;99.90;;;;;;5010312;28;20375;-82
2021/12/07 09:58:18;;;;;;;4.70;2.00;;;20.40;99.90;;;;;;5011031;28;20387;-79
2021/12/07 10:00:47;;;;;;;3.05;2.10;;;20.30;99.90;;;;;;5009201;28;20387;-82
2021/12/07 10:03:15;;;;;;;3.47;1.97;;;20.20;99.90;;;;;;5014215;28;20400;-80
2021/12/07 10:05:43;;;;;;;3.40;2.10;;;20.10;99.90;;;;;;5008952;28;20894;-83
2021/12/07 10:08:11;;;;;;;3.78;2.55;;;20.10;99.90;;;;;;4992681;28;20390;-82
2021/12/07 10:10:47;;;;;;;3.42;2.67;;;20.10;99.90;;;;;;5009080;28;20887;-84
2021/12/07 10:13:16;;;;;;;5.88;3.40;;;20.00;99.90;;;;;;5008249;28;20502;-83
2021/12/07 10:15:44;;;;;;;5.20;3.30;;;20.00;99.90;;;;;;5009634;28;20486;-83
2021/12/07 10:18:18;;;;;;;5.00;2.92;;;19.90;99.90;;;;;;5009642;28;20446;-83
2021/12/07 10:20:53;;;;;;;6.38;3.20;;;19.90;99.90;;;;;;5009784;28;20808;-83
2021/12/07 10:23:20;;;;;;;5.53;2.93;;;19.90;99.90;;;;;;4991906;28;20790;-84
2021/12/07 10:25:55;;;;;;;6.15;2.90;;;19.80;99.90;;;;;;5009764;28;20391;-83
2021/12/07 10:28:42;;;;;;;5.00;3.05;;;19.70;99.90;;;;;;4996500;28;20391;-81
2021/12/07 10:31:17;;;;;;;4.30;2.65;;;19.80;99.90;;;;;;5009595;28;20427;-82
2021/12/07 10:33:54;;;;;;;5.75;3.08;;;19.80;99.90;;;;;;5017385;28;20474;-83
2021/12/07 10:36:30;;;;;;;6.23;2.90;;;19.80;99.90;;;;;;5012525;28;20474;-83
2021/12/07 10:39:08;;;;;;;4.85;2.83;;;19.80;99.90;;;;;;5012091;28;20399;-82
2021/12/07 10:41:52;;;;;;;7.47;2.50;;;19.80;99.90;;;;;;5010709;28;20390;-83
2021/12/07 10:44:22;;;;;;;5.85;2.83;;;19.70;99.90;;;;;;5009069;28;20443;-83
2021/12/07 10:46:56;;;;;;;3.72;2.72;;;19.60;99.90;;;;;;5008782;28;20402;-83
2021/12/07 10:49:29;;;;;;;5.10;2.60;;;19.60;99.90;;;;;;5004020;28;20403;-83
2021/12/07 10:52:11;;;;;;;4.90;2.47;;;19.60;99.90;;;;;;5009082;28;20402;-78
2021/12/07 10:55:02;;;;;;;4.50;2.63;;;19.60;99.90;;;;;;5013953;28;20739;-77
2021/12/07 10:57:35;;;;;;;5.55;2.58;;;19.60;99.90;;;;;;5017011;28;20444;-78
2021/12/07 11:00:12;;;;;;;5.07;2.47;;;19.50;99.90;;;;;;5008606;28;20747;-77
2021/12/07 11:02:41;;;;;;;4.38;2.55;;;19.60;99.90;;;;;;5007838;28;20416;-77
2021/12/07 11:05:14;;;;;;;4.72;2.58;;;19.60;99.90;;;;;;5008824;28;20481;-81
2021/12/07 11:07:41;;;;;;;5.55;2.47;;;19.60;99.90;;;;;;5013734;28;20445;-79
2021/12/07 11:10:17;;;;;;;4.13;2.50;;;19.70;99.90;;;;;;5022783;28;20411;-76
2021/12/07 11:12:57;;;;;;;3.83;2.55;;;19.60;99.90;;;;;;5015376;28;20411;-81
2021/12/07 11:15:27;;;;;;;4.00;2.70;;;19.70;99.90;;;;;;5008818;28;20402;-77
2021/12/07 11:18:01;;;;;;;4.82;2.60;;;19.70;99.90;;;;;;5008329;28;20400;-78
2021/12/07 11:20:29;;;;;;;4.32;2.42;;;19.70;99.90;;;;;;5008532;28;20743;-79
2021/12/07 11:23:04;;;;;;;4.68;2.50;;;19.70;99.90;;;;;;5008241;28;20802;-76
2021/12/07 11:31:34;;;;;;;3.05;2.20;;;19.60;99.90;;;;;;5008226;28;20510;-76
2021/12/07 11:34:20;;;;;;;5.20;2.20;;;19.70;99.90;;;;;;5004462;28;20422;-79
2021/12/07 11:36:56;;;;;;;3.60;2.20;;;19.60;99.90;;;;;;5012436;28;20386;-76
2021/12/07 11:39:31;;;;;;;3.00;2.37;;;19.60;99.90;;;;;;5025543;28;20381;-76
2021/12/07 11:42:18;;;;;;;3.43;2.20;;;19.60;99.90;;;;;;5007919;28;20417;-79
2021/12/07 11:44:50;;;;;;;2.73;2.30;;;19.60;99.90;;;;;;4993734;28;20414;-77
2021/12/07 11:47:43;;;;;;;2.88;2.30;;;19.50;99.90;;;;;;5008227;28;20379;-80
2021/12/07 11:50:35;;;;;;;3.88;2.60;;;19.50;99.90;;;;;;5007262;28;20419;-77
2021/12/07 11:53:16;;;;;;;3.33;2.20;;;19.50;99.90;;;;;;5024435;28;20451;-82
2021/12/07 11:55:48;;;;;;;6.05;2.40;;;19.50;99.90;;;;;;5027404;28;20373;-76
2021/12/07 11:58:17;;;;;;;6.28;2.13;;;19.50;99.90;;;;;;5020046;28;20923;-80
2021/12/07 12:00:47;;;;;;;3.80;2.13;;;19.40;99.90;;;;;;5007438;28;20731;-76
2021/12/07 12:03:18;;;;;;;2.38;1.88;;;19.40;99.90;;;;;;5007950;28;20739;-78
2021/12/07 12:05:48;;;;;;;5.10;2.03;;;19.50;99.90;;;;;;5011575;28;20416;-80
2021/12/07 12:08:19;;;;;;;3.22;1.90;;;19.50;99.90;;;;;;5027548;28;20801;-77
2021/12/07 12:10:58;;;;;;;3.63;1.70;;;19.50;99.90;;;;;;5015797;28;20788;-77
2021/12/07 12:14:03;;;;;;;4.23;1.80;;;19.50;99.90;;;;;;5008000;28;20395;-82
2021/12/07 12:16:46;;;;;;;3.58;1.80;;;19.50;99.90;;;;;;5007733;28;20390;-77
2021/12/07 12:19:23;;;;;;;4.47;1.90;;;19.50;99.90;;;;;;5017386;28;21045;-79
2021/12/07 12:22:27;;;;;;;3.97;1.77;;;19.40;99.90;;;;;;5015532;28;20409;-80
2021/12/07 12:24:58;;;;;;;3.15;1.52;;;19.40;99.90;;;;;;5005718;28;20393;-82
2021/12/07 12:27:31;;;;;;;3.05;1.50;;;19.40;99.90;;;;;;5007819;28;20432;-81
2021/12/07 12:29:59;;;;;;;4.18;1.70;;;19.40;99.90;;;;;;5020704;28;20398;-79
2021/12/07 12:32:43;;;;;;;5.05;1.88;;;19.40;99.90;;;;;;5006910;28;20387;-81
2021/12/07 12:35:12;;;;;;;2.47;1.50;;;19.40;99.90;;;;;;5007326;28;20379;-82
2021/12/07 12:37:45;;;;;;;3.03;1.60;;;19.40;99.90;;;;;;5008457;28;20815;-82
2021/12/07 12:40:24;;;;;;;2.40;1.50;;;19.40;99.90;;;;;;5007371;28;20391;-81
2021/12/07 12:42:54;;;;;;;2.83;1.70;;;19.40;99.90;;;;;;5010709;28;20403;-82
2021/12/07 12:45:31;;;;;;;3.17;2.05;;;19.40;99.90;;;;;;5007452;28;20371;-81
2021/12/07 12:48:04;;;;;;;3.50;1.88;;;19.40;99.90;;;;;;5010245;28;20745;-81
2021/12/07 12:50:57;;;;;;;2.55;1.90;;;19.40;99.90;;;;;;5022275;28;20414;-82
2021/12/07 12:53:31;;;;;;;3.47;1.80;;;19.40;99.90;;;;;;5000618;28;20422;-82
2021/12/07 12:56:10;;;;;;;3.55;1.73;;;19.40;99.90;;;;;;5006972;28;20367;-81
2021/12/07 12:58:44;;;;;;;3.57;1.67;;;19.30;99.90;;;;;;5007959;28;20395;-83
2021/12/07 13:01:11;;;;;;;3.13;2.00;;;19.40;99.90;;;;;;5005749;28;20389;-82
2021/12/07 13:03:41;;;;;;;3.53;1.80;;;19.30;99.90;;;;;;5006440;28;20394;-82
2021/12/07 13:06:12;;;;;;;2.90;1.75;;;19.30;99.90;;;;;;5007109;28;20397;-81
2021/12/07 13:09:15;;;;;;;4.90;1.90;;;19.30;99.90;;;;;;5013285;28;20911;-82
2021/12/07 13:11:50;;;;;;;3.97;1.90;;;19.20;99.90;;;;;;5026601;28;20386;-82
2021/12/07 13:14:37;;;;;;;2.55;1.70;;;19.20;99.90;;;;;;5014926;28;20506;-82
2021/12/07 13:17:06;;;;;;;2.33;1.70;;;19.20;99.90;;;;;;4987457;28;20408;-82
2021/12/07 13:20:11;;;;;;;2.70;1.90;;;19.10;99.90;;;;;;4987432;28;20409;-82
2021/12/07 13:23:11;;;;;;;4.20;1.70;;;19.10;99.90;;;;;;4969823;28;20480;-78
2021/12/07 13:25:57;;;;;;;2.63;1.70;;;19.00;99.90;;;;;;5015001;28;20397;-77
2021/12/07 13:28:25;;;;;;;3.28;1.90;;;19.00;99.90;;;;;;5005854;28;20406;-78
2021/12/07 13:30:56;;;;;;;4.60;2.10;;;19.00;99.90;;;;;;5005993;28;20419;-77
2021/12/07 13:33:30;;;;;;;3.80;2.00;;;18.90;99.90;;;;;;5005142;28;20416;-81
2021/12/07 13:35:58;;;;;;;2.83;1.90;;;18.90;99.90;;;;;;4987167;28;20443;-80
2021/12/07 13:38:27;;;;;;;3.22;1.95;;;18.80;99.90;;;;;;4992195;28;20412;-79
2021/12/07 13:41:13;;;;;;;3.28;1.90;;;18.80;99.90;;;;;;5026311;28;20951;-78
2021/12/07 13:43:44;;;;;;;3.30;2.13;;;18.70;99.90;;;;;;5019458;28;20395;-78
2021/12/07 13:46:16;;;;;;;4.15;2.10;;;18.80;99.90;;;;;;5026475;28;20752;-79
2021/12/07 13:48:45;;;;;;;3.72;2.15;;;18.70;99.90;;;;;;5014351;28;20435;-78
2021/12/07 13:51:15;;;;;;;5.38;2.05;;;18.70;99.90;;;;;;5004903;28;20413;-77
2021/12/07 13:53:47;;;;;;;6.82;2.33;;;18.70;99.90;;;;;;5006550;28;20406;-80
2021/12/07 13:56:14;;;;;;;3.88;2.30;;;18.70;99.90;;;;;;5006472;28;20387;-78
2021/12/07 13:59:10;;;;;;;4.07;2.10;;;18.70;99.90;;;;;;5006240;28;20739;-81
2021/12/07 14:01:40;;;;;;;5.93;2.28;;;18.70;99.90;;;;;;4986159;28;20400;-81
2021/12/07 14:04:08;;;;;;;6.00;2.63;;;18.60;99.90;;;;;;4996858;28;20383;-80
2021/12/07 14:06:35;;;;;;;10.48;4.63;;;18.60;99.90;;;;;;5026236;28;20417;-80
2021/12/07 14:09:11;;;;;;;10.85;4.70;;;18.50;99.90;;;;;;5025860;28;20386;-81
2021/12/07 14:11:40;;;;;;;8.23;3.70;;;18.50;99.90;;;;;;5003763;28;20400;-79
2021/12/07 14:14:16;;;;;;;7.20;3.70;;;18.40;99.90;;;;;;5006554;28;20403;-77
2021/12/07 14:16:44;;;;;;;6.60;3.25;;;18.40;99.90;;;;;;5022454;28;20393;-81
2021/12/07 14:19:12;;;;;;;11.55;4.25;;;18.40;99.90;;;;;;5025632;28;20927;-78
2021/12/07 14:21:39;;;;;;;12.13;4.97;;;18.30;99.90;;;;;;5008386;28;20482;-81
2021/12/07 14:24:15;;;;;;;7.25;3.85;;;18.20;99.90;;;;;;5009851;28;20383;-81
2021/12/07 14:26:43;;;;;;;10.17;4.00;;;18.20;99.90;;;;;;5019959;28;20394;-78
2021/12/07 14:29:23;;;;;;;7.10;4.00;;;18.20;99.90;;;;;;5009642;28;20415;-81
2021/12/07 14:31:58;;;;;;;10.40;4.45;;;18.10;99.90;;;;;;5028974;28;20401;-80
2021/12/07 14:34:30;;;;;;;17.00;4.93;;;18.10;99.90;;;;;;5029256;28;20449;-81
2021/12/07 14:37:01;;;;;;;9.23;4.75;;;18.10;99.90;;;;;;5009969;28;20403;-82
2021/12/07 14:39:31;;;;;;;10.82;4.72;;;18.10;99.90;;;;;;5010809;28;20404;-82
2021/12/07 14:42:07;;;;;;;7.18;4.72;;;18.20;99.90;;;;;;5015208;28;20402;-81
2021/12/07 14:44:41;;;;;;;10.68;6.30;;;18.20;99.90;;;;;;5009493;28;20425;-82
2021/12/07 14:47:09;;;;;;;14.53;12.33;;;18.20;99.90;;;;;;5009302;28;20387;-82
2021/12/07 14:49:38;;;;;;;12.80;11.40;;;18.10;99.90;;;;;;5008912;28;20755;-82
2021/12/07 14:52:25;;;;;;;11.10;9.50;;;18.10;99.90;;;;;;5027907;28;20393;-81
2021/12/07 14:54:54;;;;;;;12.98;9.02;;;18.10;99.90;;;;;;5028288;28;20374;-81
2021/12/07 14:57:22;;;;;;;11.60;7.97;;;18.10;99.90;;;;;;4991473;28;20394;-83
2021/12/07 14:59:52;;;;;;;9.68;6.88;;;18.10;99.90;;;;;;5009164;28;20387;-79